CBB weather

Jorge Wilsterman International Airport
Cochabamba, Cochabamba Department, Bolivia

Public forecast

Using degrees Celsius for public forecast. Weather courtesy of forecast.io.

Current aviation weather report (METAR) for Jorge Wilsterman International Airport

Retrieved 2019/10/21 01:00 UTC (43 minutes ago):

SLCB 210100Z 14004KT 9999 FEW033 SCT200 19/05 Q1021

Aviation forecast (TAF) for Jorge Wilsterman International Airport

Retrieved 2019-10-21 00:50 UTC (53 minutes ago):

TAF SLCB 202200Z 2100/2124 14010KT 9999 FEW036 TX29/2119Z TN13/2111Z BECMG 2102/2104 00000KT FEW030 SCT070 BECMG 2114/2116 24010KT TEMPO 2119/2121 04012KT FEW033 FEW036CB